Terminal Aerodrome Forecast
Issued by NWS

Home | Current Version | Previous Version | Graphics & Text | Print | Product List | Glossary On
Versions: 1 2 3 4 5 6 7 8 9 10 11 12 13
000
FTUS43 KTOP 272300
TAFFOE
TAF
KFOE 272325Z 2800/2824 33009KT P6SM BKN100
     FM280900 30005KT P6SM SCT150
     FM281600 30011KT P6SM SCT250=

USA.gov is the U.S. government's official web portal to all federal, state and local government web resources and services.